createdAt,value
2022-12-08T00:00:27.168Z,10.40
2022-12-08T00:02:53.991Z,5.47
2022-12-08T00:05:39.344Z,7.70
2022-12-08T00:08:24.815Z,13.10
2022-12-08T00:10:51.505Z,14.07
2022-12-08T00:13:18.220Z,16.65
2022-12-08T00:15:44.867Z,11.45
2022-12-08T00:18:12.208Z,8.95
2022-12-08T00:20:38.925Z,11.25
2022-12-08T00:23:05.731Z,14.43
2022-12-08T00:25:36.515Z,8.60
2022-12-08T00:28:03.349Z,8.18
2022-12-08T00:30:30.004Z,11.50
2022-12-08T00:32:56.774Z,9.02
2022-12-08T00:35:23.445Z,14.38
2022-12-08T00:37:50.183Z,11.95
2022-12-08T00:40:16.921Z,14.52
2022-12-08T00:42:43.549Z,6.07
2022-12-08T00:45:10.756Z,7.07
2022-12-08T00:47:37.387Z,8.15
2022-12-08T00:50:05.179Z,6.00
2022-12-08T00:52:31.958Z,8.48
2022-12-08T00:54:58.616Z,6.57
2022-12-08T00:57:25.274Z,7.82
2022-12-08T00:59:51.942Z,19.70
2022-12-08T01:02:18.581Z,7.97
2022-12-08T01:04:45.630Z,9.98
2022-12-08T01:07:12.362Z,9.55
2022-12-08T01:09:39.050Z,9.18
2022-12-08T01:12:06.789Z,9.30
2022-12-08T01:14:33.567Z,9.30
2022-12-08T01:17:00.280Z,8.20
2022-12-08T01:19:27.024Z,9.40
2022-12-08T01:21:53.889Z,11.07
2022-12-08T01:24:21.517Z,5.78
2022-12-08T01:26:49.616Z,11.52
2022-12-08T01:29:16.400Z,10.25
2022-12-08T01:31:43.075Z,14.05
2022-12-08T01:34:11.491Z,8.90
2022-12-08T01:36:38.587Z,11.18
2022-12-08T01:39:13.947Z,8.80
2022-12-08T01:41:40.716Z,12.70
2022-12-08T01:44:08.385Z,8.20
2022-12-08T01:46:43.569Z,11.02
2022-12-08T01:49:15.716Z,6.25
2022-12-08T01:51:49.072Z,7.25
2022-12-08T01:54:16.411Z,7.38
2022-12-08T01:56:49.352Z,5.97
2022-12-08T01:59:17.422Z,13.40
2022-12-08T02:01:44.143Z,7.65
2022-12-08T02:04:11.306Z,10.50
2022-12-08T02:06:43.556Z,6.30
2022-12-08T02:09:10.676Z,7.90
2022-12-08T02:11:37.391Z,7.53
2022-12-08T02:14:08.399Z,12.00
2022-12-08T02:17:14.616Z,7.47
2022-12-08T02:19:50.406Z,8.98
2022-12-08T02:22:45.405Z,10.30
2022-12-08T02:25:22.407Z,7.95
2022-12-08T02:28:06.983Z,8.82
2022-12-08T02:30:54.895Z,6.97
2022-12-08T02:33:59.077Z,7.78
2022-12-08T02:36:36.103Z,7.90
2022-12-08T02:39:25.787Z,7.82
2022-12-08T02:42:02.407Z,8.45
2022-12-08T02:44:38.132Z,9.38
2022-12-08T02:47:13.787Z,7.80
2022-12-08T02:49:40.451Z,11.77
2022-12-08T02:52:12.941Z,11.63
2022-12-08T02:54:45.154Z,7.78
2022-12-08T02:57:33.544Z,10.70
2022-12-08T03:00:14.172Z,7.90
2022-12-08T03:02:56.782Z,10.40
2022-12-08T03:05:26.591Z,9.82
2022-12-08T03:07:56.354Z,12.45
2022-12-08T03:10:37.664Z,7.15
2022-12-08T03:13:17.249Z,9.13
2022-12-08T03:15:47.553Z,11.20
2022-12-08T03:18:17.191Z,8.50
2022-12-08T03:20:46.305Z,12.15
2022-12-08T03:23:16.530Z,10.88
2022-12-08T03:25:57.941Z,12.57
2022-12-08T03:28:25.285Z,7.43
2022-12-08T03:30:56.000Z,9.45
2022-12-08T03:33:27.801Z,8.60
2022-12-08T03:35:55.674Z,12.20
2022-12-08T03:38:23.241Z,11.82
2022-12-08T03:41:10.153Z,7.82
2022-12-08T03:43:37.427Z,7.30
2022-12-08T03:46:04.387Z,6.85
2022-12-08T03:48:31.211Z,8.18
2022-12-08T03:50:57.890Z,5.45
2022-12-08T03:53:24.559Z,7.00
2022-12-08T03:55:52.790Z,8.10
2022-12-08T03:58:19.421Z,7.15
2022-12-08T04:00:46.045Z,6.45
2022-12-08T04:03:12.739Z,8.52
2022-12-08T04:05:39.444Z,11.98
2022-12-08T04:08:06.378Z,13.75
2022-12-08T04:10:33.089Z,8.82
2022-12-08T04:12:59.777Z,6.82
2022-12-08T04:15:26.425Z,6.22
2022-12-08T04:17:53.079Z,7.43
2022-12-08T04:20:19.736Z,6.00
2022-12-08T04:22:46.409Z,22.65
2022-12-08T04:25:13.158Z,9.43
2022-12-08T04:27:39.794Z,9.20
2022-12-08T04:30:07.466Z,7.63
2022-12-08T04:32:45.792Z,8.85
2022-12-08T04:35:14.119Z,9.15
2022-12-08T04:37:40.959Z,11.07
2022-12-08T04:40:08.164Z,8.88
2022-12-08T04:42:34.784Z,8.27
2022-12-08T04:45:01.417Z,9.95
2022-12-08T04:47:28.145Z,6.60
2022-12-08T04:49:54.857Z,16.15
2022-12-08T04:52:21.696Z,8.77
2022-12-08T04:54:48.528Z,9.88
2022-12-08T04:57:15.377Z,18.90
2022-12-08T04:59:42.021Z,7.90
2022-12-08T05:02:08.939Z,7.13
2022-12-08T05:04:35.694Z,5.75
2022-12-08T05:07:02.664Z,12.98
2022-12-08T05:09:29.519Z,7.63
2022-12-08T05:11:56.149Z,11.95
2022-12-08T05:14:23.141Z,10.02
2022-12-08T05:16:50.144Z,7.45
2022-12-08T05:19:17.115Z,6.15
2022-12-08T05:21:43.986Z,7.15
2022-12-08T05:24:10.936Z,5.20
2022-12-08T05:26:37.673Z,14.73
2022-12-08T05:29:04.507Z,3.97
2022-12-08T05:31:31.620Z,5.88
2022-12-08T05:34:02.829Z,6.20
2022-12-08T05:36:30.009Z,9.40
2022-12-08T05:38:58.304Z,4.25
2022-12-08T05:41:25.254Z,2.72
2022-12-08T05:43:51.997Z,4.78
2022-12-08T05:46:19.567Z,4.53
2022-12-08T05:48:46.373Z,5.68
2022-12-08T05:51:20.738Z,4.43
2022-12-08T05:53:49.711Z,5.80
2022-12-08T05:56:16.816Z,5.47
2022-12-08T05:58:43.709Z,4.78
2022-12-08T06:01:28.721Z,4.78
2022-12-08T06:03:57.320Z,2.03
2022-12-08T06:06:24.447Z,3.55
2022-12-08T06:08:51.612Z,2.53
2022-12-08T06:11:29.528Z,3.95
2022-12-08T06:13:57.854Z,2.70
2022-12-08T06:16:26.336Z,3.15
2022-12-08T06:18:53.614Z,2.80
2022-12-08T06:21:21.034Z,5.63
2022-12-08T06:23:49.857Z,4.35
2022-12-08T06:26:17.194Z,29.02
2022-12-08T06:28:54.522Z,3.88
2022-12-08T06:31:24.680Z,3.80
2022-12-08T06:33:54.200Z,3.53
2022-12-08T06:36:24.246Z,2.78
2022-12-08T06:38:54.125Z,3.30
2022-12-08T06:41:20.852Z,1.55
2022-12-08T06:43:50.191Z,3.05
2022-12-08T06:46:19.302Z,1.48
2022-12-08T06:48:50.668Z,2.70
2022-12-08T06:51:19.723Z,1.98
2022-12-08T06:53:47.495Z,3.10
2022-12-08T07:13:46.893Z,1.45
2022-12-08T07:24:35.422Z,3.63
2022-12-08T07:27:02.634Z,1.98
2022-12-08T07:29:32.600Z,1.92
2022-12-08T07:31:59.417Z,2.47
2022-12-08T07:34:26.211Z,1.13
2022-12-08T07:36:53.079Z,2.20
2022-12-08T07:39:19.859Z,1.88
2022-12-08T07:41:46.710Z,2.05
2022-12-08T07:44:13.612Z,2.88
2022-12-08T07:46:40.505Z,2.03
2022-12-08T07:49:07.357Z,2.92
2022-12-08T07:51:34.111Z,3.03
2022-12-08T07:54:01.061Z,4.13
2022-12-08T07:56:27.882Z,3.35
2022-12-08T07:58:54.594Z,1.92
2022-12-08T08:01:29.495Z,3.55
2022-12-08T08:03:58.473Z,1.85
2022-12-08T08:06:25.465Z,2.75
2022-12-08T08:08:52.173Z,1.42
2022-12-08T08:11:21.668Z,2.95
2022-12-08T08:13:50.130Z,2.30
2022-12-08T08:16:17.064Z,3.50
2022-12-08T08:18:43.971Z,3.65
2022-12-08T08:23:57.562Z,5.07
2022-12-08T08:26:24.381Z,2.33
2022-12-08T08:28:51.169Z,3.85
2022-12-08T08:33:59.090Z,5.40
2022-12-08T08:36:28.261Z,17.50
2022-12-08T08:38:54.906Z,6.20
2022-12-08T08:41:21.592Z,4.20
2022-12-08T08:43:48.361Z,5.75
2022-12-08T08:46:15.115Z,8.68
2022-12-08T08:48:42.441Z,6.22
2022-12-08T08:51:11.402Z,4.80
2022-12-08T08:53:38.420Z,3.75
2022-12-08T08:56:13.551Z,5.10
2022-12-08T08:58:40.607Z,5.38
2022-12-08T09:01:07.478Z,5.53
2022-12-08T09:03:34.288Z,7.50
2022-12-08T09:06:01.022Z,4.75
2022-12-08T09:08:27.915Z,5.20
2022-12-08T09:10:54.932Z,4.22
2022-12-08T09:13:22.400Z,5.78
2022-12-08T09:15:49.536Z,5.70
2022-12-08T09:18:16.314Z,7.55
2022-12-08T09:20:43.043Z,7.13
2022-12-08T09:23:09.862Z,7.72
2022-12-08T09:25:36.822Z,8.65
2022-12-08T09:28:03.623Z,6.88
2022-12-08T09:30:31.541Z,5.55
2022-12-08T09:32:58.260Z,8.85
2022-12-08T09:35:24.924Z,7.35
2022-12-08T09:37:51.651Z,4.03
2022-12-08T09:40:21.555Z,7.50
2022-12-08T09:42:55.879Z,4.18
2022-12-08T09:45:27.114Z,7.97
2022-12-08T09:48:03.236Z,5.10
2022-12-08T09:50:35.619Z,4.65
2022-12-08T09:53:45.733Z,4.20
2022-12-08T09:56:23.769Z,9.95
2022-12-08T09:58:58.562Z,5.40
2022-12-08T10:01:41.982Z,4.95
2022-12-08T10:04:20.469Z,5.60
2022-12-08T10:06:56.071Z,5.05
2022-12-08T10:09:43.997Z,5.75
2022-12-08T10:12:48.125Z,4.63
2022-12-08T10:15:50.358Z,4.53
2022-12-08T10:18:24.721Z,4.80
2022-12-08T10:20:52.259Z,4.18
2022-12-08T10:23:27.463Z,5.30
2022-12-08T10:26:07.633Z,5.85
2022-12-08T10:28:38.748Z,3.38
2022-12-08T10:31:22.319Z,5.82
2022-12-08T10:34:00.487Z,9.18
2022-12-08T10:36:49.979Z,8.85
2022-12-08T10:39:38.366Z,8.10
2022-12-08T10:42:32.397Z,8.55
2022-12-08T10:45:17.350Z,7.68
2022-12-08T10:48:01.220Z,9.65
2022-12-08T10:50:36.794Z,5.47
2022-12-08T10:53:09.781Z,3.70
2022-12-08T10:55:42.534Z,8.00
2022-12-08T10:58:24.308Z,11.13
2022-12-08T11:01:11.345Z,14.32
2022-12-08T11:03:43.913Z,6.22
2022-12-08T11:06:31.964Z,6.47
2022-12-08T11:09:18.699Z,8.13
2022-12-08T11:11:54.814Z,4.80
2022-12-08T11:14:26.268Z,10.20
2022-12-08T11:16:55.364Z,9.27
2022-12-08T11:19:27.989Z,8.45
2022-12-08T11:21:54.926Z,8.23
2022-12-08T11:24:31.138Z,11.90
2022-12-08T11:27:05.344Z,7.82
2022-12-08T11:29:33.991Z,8.00
2022-12-08T11:32:11.534Z,7.95
2022-12-08T11:34:46.785Z,10.27
2022-12-08T11:37:39.301Z,8.52
2022-12-08T11:40:30.867Z,10.45
2022-12-08T11:43:16.806Z,20.40
2022-12-08T11:45:44.269Z,5.40
2022-12-08T11:48:19.276Z,11.27
2022-12-08T11:50:50.794Z,6.05
2022-12-08T11:53:28.073Z,9.88
2022-12-08T11:56:00.605Z,10.20
2022-12-08T11:58:45.071Z,9.88
2022-12-08T12:01:23.453Z,9.00
2022-12-08T12:04:02.224Z,9.68
2022-12-08T12:06:54.898Z,8.82
2022-12-08T12:09:34.247Z,10.60
2022-12-08T12:12:33.712Z,9.32
2022-12-08T12:15:49.875Z,10.18
2022-12-08T12:18:28.949Z,8.13
2022-12-08T12:21:18.533Z,17.02
2022-12-08T12:23:59.529Z,8.60
2022-12-08T12:26:29.270Z,15.18
2022-12-08T12:29:08.078Z,13.98
2022-12-08T12:31:42.511Z,11.50
2022-12-08T12:34:23.446Z,11.82
2022-12-08T12:36:57.619Z,13.35
2022-12-08T12:39:34.151Z,13.00
2022-12-08T12:42:02.843Z,15.20
2022-12-08T12:44:29.467Z,17.98
2022-12-08T12:46:57.825Z,16.55
2022-12-08T12:49:39.899Z,16.58
2022-12-08T12:52:15.589Z,13.82
2022-12-08T12:55:11.376Z,7.72
2022-12-08T12:57:40.244Z,14.05
2022-12-08T13:00:09.651Z,12.10
2022-12-08T13:02:36.596Z,11.48
2022-12-08T13:05:10.940Z,12.25
2022-12-08T13:08:00.852Z,14.25
2022-12-08T13:10:32.137Z,17.38
2022-12-08T13:13:19.162Z,12.02
2022-12-08T13:16:17.152Z,17.05
2022-12-08T13:18:51.120Z,14.82
2022-12-08T13:21:23.915Z,13.70
2022-12-08T13:24:10.604Z,9.10
2022-12-08T13:26:48.768Z,13.88
2022-12-08T13:29:19.879Z,10.38
2022-12-08T13:31:51.237Z,15.05
2022-12-08T13:34:35.885Z,13.25
2022-12-08T13:37:11.743Z,13.25
2022-12-08T13:39:45.038Z,14.35
2022-12-08T13:42:25.022Z,14.55
2022-12-08T13:45:33.461Z,10.48
2022-12-08T13:55:07.199Z,15.82
2022-12-08T13:57:26.259Z,14.77
2022-12-08T13:59:53.131Z,15.45
2022-12-08T14:02:33.265Z,14.15
2022-12-08T14:07:50.026Z,10.73
2022-12-08T14:10:22.136Z,19.27
2022-12-08T14:12:55.651Z,20.83
2022-12-08T14:15:22.654Z,14.85
2022-12-08T14:17:54.671Z,17.63
2022-12-08T14:20:33.810Z,17.58
2022-12-08T14:23:09.177Z,18.02
2022-12-08T14:25:36.085Z,26.25
2022-12-08T14:28:04.714Z,17.20
2022-12-08T14:30:32.776Z,19.38
2022-12-08T14:33:02.216Z,24.85
2022-12-08T14:35:31.155Z,25.13
2022-12-08T14:38:00.686Z,22.50
2022-12-08T14:40:42.215Z,18.27
2022-12-08T14:43:08.913Z,16.35
2022-12-08T14:45:51.905Z,22.15
2022-12-08T14:48:25.691Z,18.52
2022-12-08T14:51:23.387Z,16.33
2022-12-08T14:54:09.580Z,19.33
2022-12-08T14:56:36.370Z,12.75
2022-12-08T14:59:11.917Z,23.13
2022-12-08T15:01:39.634Z,13.20
2022-12-08T15:04:19.362Z,15.20
2022-12-08T15:06:54.516Z,18.20
2022-12-08T15:09:43.498Z,10.55
2022-12-08T15:12:13.305Z,15.75
2022-12-08T15:14:54.860Z,14.40
2022-12-08T15:17:40.329Z,13.07
2022-12-08T15:20:27.576Z,21.13
2022-12-08T15:22:58.567Z,19.05
2022-12-08T15:25:25.639Z,15.02
2022-12-08T15:27:56.596Z,13.98
2022-12-08T15:30:23.948Z,12.13
2022-12-08T15:32:52.396Z,17.35
2022-12-08T15:35:19.171Z,17.85
2022-12-08T15:37:46.592Z,18.20
2022-12-08T15:40:19.863Z,12.93
2022-12-08T15:42:46.681Z,12.80
2022-12-08T15:45:14.687Z,12.00
2022-12-08T15:47:42.620Z,16.88
2022-12-08T15:50:22.090Z,37.40
2022-12-08T15:52:50.350Z,12.38
2022-12-08T15:55:19.503Z,11.70
2022-12-08T16:00:52.656Z,16.83
2022-12-08T16:09:17.208Z,12.07
2022-12-08T16:12:07.853Z,15.82
2022-12-08T16:17:23.439Z,15.23
2022-12-08T16:19:50.257Z,11.10
2022-12-08T16:25:22.451Z,9.07
2022-12-08T16:28:05.424Z,11.40
2022-12-08T16:30:39.280Z,15.60
2022-12-08T16:33:06.208Z,11.75
2022-12-08T16:35:33.247Z,15.55
2022-12-08T16:37:59.958Z,9.95
2022-12-08T16:40:26.638Z,16.08
2022-12-08T16:42:53.598Z,19.30
2022-12-08T16:45:25.218Z,14.35
2022-12-08T16:47:54.427Z,16.45
2022-12-08T16:50:27.326Z,14.45
2022-12-08T16:53:02.660Z,11.93
2022-12-08T16:55:29.731Z,13.80
2022-12-08T16:57:56.486Z,16.95
2022-12-08T17:00:25.829Z,14.90
2022-12-08T17:02:53.465Z,14.07
2022-12-08T17:05:22.808Z,16.23
2022-12-08T17:07:51.799Z,19.80
2022-12-08T17:10:21.025Z,18.05
2022-12-08T17:12:47.724Z,13.95
2022-12-08T17:15:18.067Z,17.08
2022-12-08T17:17:44.834Z,14.32
2022-12-08T17:20:29.675Z,11.75
2022-12-08T17:22:58.234Z,11.70
2022-12-08T17:25:26.196Z,14.35
2022-12-08T17:27:52.914Z,10.63
2022-12-08T17:30:19.850Z,16.30
2022-12-08T17:32:46.627Z,16.92
2022-12-08T17:35:14.390Z,11.02
2022-12-08T17:37:42.892Z,14.45
2022-12-08T17:40:09.947Z,13.38
2022-12-08T17:42:38.059Z,18.63
2022-12-08T17:45:06.752Z,16.23
2022-12-08T17:47:33.567Z,17.35
2022-12-08T17:50:00.964Z,24.45
2022-12-08T17:52:27.775Z,13.82
2022-12-08T17:54:54.488Z,12.88
2022-12-08T17:57:21.241Z,14.73
2022-12-08T17:59:48.003Z,12.65
2022-12-08T18:02:15.238Z,15.90
2022-12-08T18:04:41.985Z,10.80
2022-12-08T18:07:08.678Z,19.02
2022-12-08T18:09:35.432Z,14.95
2022-12-08T18:12:02.186Z,11.10
2022-12-08T18:14:28.926Z,12.65
2022-12-08T18:16:55.801Z,14.68
2022-12-08T18:19:22.659Z,8.80
2022-12-08T18:21:49.454Z,13.13
2022-12-08T18:24:20.965Z,6.82
2022-12-08T18:26:48.852Z,12.38
2022-12-08T18:29:15.802Z,8.35
2022-12-08T18:31:42.571Z,10.45
2022-12-08T18:34:09.269Z,11.82
2022-12-08T18:36:36.114Z,15.93
2022-12-08T18:39:08.768Z,11.70
2022-12-08T18:41:37.826Z,8.23
2022-12-08T18:44:04.868Z,11.23
2022-12-08T18:46:31.760Z,11.27
2022-12-08T18:48:59.610Z,11.02
2022-12-08T18:51:26.470Z,15.23
2022-12-08T18:56:36.690Z,12.43
2022-12-08T18:59:07.453Z,9.60
2022-12-08T19:01:36.637Z,8.35
2022-12-08T19:06:53.761Z,11.27
2022-12-08T19:09:20.982Z,9.05
2022-12-08T19:11:47.941Z,17.10
2022-12-08T19:14:15.193Z,8.23
2022-12-08T19:16:42.248Z,12.82
2022-12-08T19:19:09.473Z,10.52
2022-12-08T19:21:46.532Z,6.47
2022-12-08T19:24:13.651Z,10.73
2022-12-08T19:26:41.052Z,7.53
2022-12-08T19:29:07.845Z,7.45
2022-12-08T19:31:38.332Z,11.10
2022-12-08T19:34:09.442Z,10.30
2022-12-08T19:36:43.176Z,10.15
2022-12-08T19:42:41.298Z,9.77
2022-12-08T19:45:17.609Z,14.93
2022-12-08T19:47:44.816Z,12.13
2022-12-08T19:50:31.864Z,11.48
2022-12-08T19:52:59.382Z,9.57
2022-12-08T19:55:26.626Z,7.78
2022-12-08T19:57:54.896Z,9.60
2022-12-08T20:00:21.780Z,8.27
2022-12-08T20:02:49.235Z,5.85
2022-12-08T20:05:17.677Z,9.57
2022-12-08T20:07:45.456Z,12.90
2022-12-08T20:10:16.887Z,7.65
2022-12-08T20:12:43.673Z,8.45
2022-12-08T20:15:11.235Z,9.13
2022-12-08T20:17:38.737Z,7.15
2022-12-08T20:20:07.586Z,13.52
2022-12-08T20:22:34.924Z,8.63
2022-12-08T20:25:02.344Z,10.13
2022-12-08T20:27:29.263Z,6.07
2022-12-08T20:29:56.189Z,7.05
2022-12-08T20:32:22.982Z,8.95
2022-12-08T20:34:49.749Z,8.05
2022-12-08T20:37:16.591Z,10.48
2022-12-08T20:39:43.342Z,9.88
2022-12-08T20:42:13.931Z,14.40
2022-12-08T20:44:44.527Z,7.60
2022-12-08T20:47:12.333Z,10.77
2022-12-08T20:49:39.298Z,7.93
2022-12-08T20:52:06.107Z,11.02
2022-12-08T20:54:33.130Z,8.00
2022-12-08T20:57:00.782Z,7.32
2022-12-08T20:59:27.509Z,13.93
2022-12-08T21:01:54.573Z,9.77
2022-12-08T21:04:22.826Z,7.00
2022-12-08T21:06:50.279Z,10.00
2022-12-08T21:09:17.199Z,10.82
2022-12-08T21:11:44.544Z,10.77
2022-12-08T21:14:11.381Z,8.45
2022-12-08T21:16:38.291Z,11.05
2022-12-08T21:19:06.224Z,14.73
2022-12-08T21:21:33.238Z,14.60
2022-12-08T21:24:00.058Z,7.65
2022-12-08T21:26:27.063Z,6.25
2022-12-08T21:28:58.529Z,8.40
2022-12-08T21:31:31.870Z,6.40
2022-12-08T21:33:59.839Z,8.82
2022-12-08T21:36:26.846Z,11.77
2022-12-08T21:38:55.002Z,8.57
2022-12-08T21:41:42.463Z,9.27
2022-12-08T21:44:12.594Z,7.75
2022-12-08T21:46:39.556Z,8.27
2022-12-08T21:49:06.406Z,9.73
2022-12-08T21:51:35.157Z,8.57
2022-12-08T21:54:01.953Z,9.73
2022-12-08T21:56:28.902Z,8.48
2022-12-08T21:58:55.642Z,8.73
2022-12-08T22:01:22.354Z,13.50
2022-12-08T22:03:49.307Z,7.57
2022-12-08T22:06:16.425Z,10.45
2022-12-08T22:08:45.307Z,8.90
2022-12-08T22:11:15.228Z,19.60
2022-12-08T22:13:42.441Z,8.32
2022-12-08T22:16:11.644Z,4.78
2022-12-08T22:18:42.498Z,5.97
2022-12-08T22:21:14.140Z,7.15
2022-12-08T22:23:41.057Z,9.43
2022-12-08T22:26:08.767Z,6.43
2022-12-08T22:28:41.991Z,7.70
2022-12-08T22:36:19.434Z,5.43
2022-12-08T22:38:46.836Z,5.30
2022-12-08T22:41:13.581Z,4.38
2022-12-08T22:43:41.144Z,9.60
2022-12-08T22:46:17.317Z,7.78
2022-12-08T22:48:44.243Z,7.03
2022-12-08T22:51:11.345Z,9.02
2022-12-08T22:53:38.326Z,7.22
2022-12-08T22:56:10.455Z,6.70
2022-12-08T22:58:38.504Z,9.20
2022-12-08T23:01:06.281Z,7.25
2022-12-08T23:03:33.617Z,3.72
2022-12-08T23:06:01.450Z,7.05
2022-12-08T23:08:28.654Z,7.35
2022-12-08T23:10:55.902Z,6.72
2022-12-08T23:13:22.855Z,4.70
2022-12-08T23:15:50.128Z,6.95
2022-12-08T23:18:19.338Z,6.70
2022-12-08T23:20:47.628Z,7.70
2022-12-08T23:23:15.484Z,5.15
2022-12-08T23:25:43.287Z,6.80
2022-12-08T23:28:11.162Z,7.72
2022-12-08T23:30:41.005Z,6.45
2022-12-08T23:33:07.987Z,5.85
2022-12-08T23:35:34.855Z,7.85
2022-12-08T23:38:01.639Z,4.47
2022-12-08T23:40:28.338Z,3.75
2022-12-08T23:42:55.048Z,7.93
2022-12-08T23:45:22.086Z,8.30
2022-12-08T23:47:48.737Z,5.57
2022-12-08T23:50:15.450Z,5.80
2022-12-08T23:52:42.196Z,5.65
2022-12-08T23:55:09.442Z,3.28
2022-12-08T23:57:37.769Z,5.13
